sensor_id;sensor_type;location;lat;lon;timestamp;temperature;humidity
23556;DHT22;11956;53.184;8.578;2022-10-23T00:00:29;10.60;99.90
23556;DHT22;11956;53.184;8.578;2022-10-23T00:03:30;10.60;99.90
23556;DHT22;11956;53.184;8.578;2022-10-23T00:06:32;10.60;99.90
23556;DHT22;11956;53.184;8.578;2022-10-23T00:09:33;10.50;99.90
23556;DHT22;11956;53.184;8.578;2022-10-23T00:12:35;10.60;99.90
23556;DHT22;11956;53.184;8.578;2022-10-23T00:15:36;10.50;99.90
23556;DHT22;11956;53.184;8.578;2022-10-23T00:18:38;10.60;99.90
23556;DHT22;11956;53.184;8.578;2022-10-23T00:21:39;10.50;99.90
23556;DHT22;11956;53.184;8.578;2022-10-23T00:24:40;10.50;99.90
23556;DHT22;11956;53.184;8.578;2022-10-23T00:27:41;10.50;99.90
23556;DHT22;11956;53.184;8.578;2022-10-23T00:30:42;10.50;99.90
23556;DHT22;11956;53.184;8.578;2022-10-23T00:33:43;10.60;99.90
23556;DHT22;11956;53.184;8.578;2022-10-23T00:36:44;10.50;99.90
23556;DHT22;11956;53.184;8.578;2022-10-23T00:39:45;10.50;99.90
23556;DHT22;11956;53.184;8.578;2022-10-23T00:42:46;10.60;99.90
23556;DHT22;11956;53.184;8.578;2022-10-23T00:45:48;10.50;99.90
23556;DHT22;11956;53.184;8.578;2022-10-23T00:48:49;10.50;99.90
23556;DHT22;11956;53.184;8.578;2022-10-23T00:51:56;10.50;99.90
23556;DHT22;11956;53.184;8.578;2022-10-23T00:55:00;10.50;99.90
23556;DHT22;11956;53.184;8.578;2022-10-23T00:58:01;10.50;99.90
23556;DHT22;11956;53.184;8.578;2022-10-23T01:01:19;10.40;99.90
23556;DHT22;11956;53.184;8.578;2022-10-23T01:04:22;10.40;99.90
23556;DHT22;11956;53.184;8.578;2022-10-23T01:07:51;10.40;99.90
23556;DHT22;11956;53.184;8.578;2022-10-23T01:15:15;10.30;99.90
23556;DHT22;11956;53.184;8.578;2022-10-23T01:18:43;10.30;99.90
23556;DHT22;11956;53.184;8.578;2022-10-23T01:21:59;10.40;99.90
23556;DHT22;11956;53.184;8.578;2022-10-23T01:25:28;10.40;99.90
23556;DHT22;11956;53.184;8.578;2022-10-23T01:28:39;10.40;99.90
23556;DHT22;11956;53.184;8.578;2022-10-23T01:31:56;10.50;99.90
23556;DHT22;11956;53.184;8.578;2022-10-23T01:35:41;10.50;99.90
23556;DHT22;11956;53.184;8.578;2022-10-23T01:38:58;10.50;99.90
23556;DHT22;11956;53.184;8.578;2022-10-23T01:42:09;10.60;99.90
23556;DHT22;11956;53.184;8.578;2022-10-23T01:45:37;10.70;99.90
23556;DHT22;11956;53.184;8.578;2022-10-23T01:48:46;10.80;99.90
23556;DHT22;11956;53.184;8.578;2022-10-23T01:51:57;10.80;99.90
23556;DHT22;11956;53.184;8.578;2022-10-23T01:55:01;10.80;99.90
23556;DHT22;11956;53.184;8.578;2022-10-23T01:58:06;10.80;99.90
23556;DHT22;11956;53.184;8.578;2022-10-23T02:01:15;10.90;99.90
23556;DHT22;11956;53.184;8.578;2022-10-23T02:04:28;10.90;99.90
23556;DHT22;11956;53.184;8.578;2022-10-23T02:07:33;10.90;99.90
23556;DHT22;11956;53.184;8.578;2022-10-23T02:10:43;11.00;99.90
23556;DHT22;11956;53.184;8.578;2022-10-23T02:13:49;10.90;99.90
23556;DHT22;11956;53.184;8.578;2022-10-23T02:17:08;10.90;99.90
23556;DHT22;11956;53.184;8.578;2022-10-23T02:24:06;10.90;99.90
23556;DHT22;11956;53.184;8.578;2022-10-23T02:27:18;10.90;99.90
23556;DHT22;11956;53.184;8.578;2022-10-23T02:30:28;10.70;99.90
23556;DHT22;11956;53.184;8.578;2022-10-23T02:33:42;10.70;99.90
23556;DHT22;11956;53.184;8.578;2022-10-23T02:36:44;10.70;99.90
23556;DHT22;11956;53.184;8.578;2022-10-23T02:39:46;10.60;99.90
23556;DHT22;11956;53.184;8.578;2022-10-23T02:43:04;10.70;99.90
23556;DHT22;11956;53.184;8.578;2022-10-23T02:53:23;10.60;99.90
23556;DHT22;11956;53.184;8.578;2022-10-23T02:56:51;10.60;99.90
23556;DHT22;11956;53.184;8.578;2022-10-23T03:03:10;10.60;99.90
23556;DHT22;11956;53.184;8.578;2022-10-23T03:06:14;10.50;99.90
23556;DHT22;11956;53.184;8.578;2022-10-23T03:09:16;10.40;99.90
23556;DHT22;11956;53.184;8.578;2022-10-23T03:12:18;10.30;99.90
23556;DHT22;11956;53.184;8.578;2022-10-23T03:15:19;10.20;99.90
23556;DHT22;11956;53.184;8.578;2022-10-23T03:18:22;10.10;99.90
23556;DHT22;11956;53.184;8.578;2022-10-23T03:21:24;10.10;99.90
23556;DHT22;11956;53.184;8.578;2022-10-23T03:24:27;10.00;99.90
23556;DHT22;11956;53.184;8.578;2022-10-23T03:27:28;10.00;99.90
23556;DHT22;11956;53.184;8.578;2022-10-23T03:30:28;9.90;99.90
23556;DHT22;11956;53.184;8.578;2022-10-23T03:33:30;9.90;99.90
23556;DHT22;11956;53.184;8.578;2022-10-23T03:36:40;9.90;99.90
23556;DHT22;11956;53.184;8.578;2022-10-23T03:39:42;9.90;99.90
23556;DHT22;11956;53.184;8.578;2022-10-23T03:42:43;9.90;99.90
23556;DHT22;11956;53.184;8.578;2022-10-23T03:45:47;9.90;99.90
23556;DHT22;11956;53.184;8.578;2022-10-23T03:48:50;9.90;99.90
23556;DHT22;11956;53.184;8.578;2022-10-23T03:51:52;9.90;99.90
23556;DHT22;11956;53.184;8.578;2022-10-23T03:54:54;9.80;99.90
23556;DHT22;11956;53.184;8.578;2022-10-23T03:57:55;9.80;99.90
23556;DHT22;11956;53.184;8.578;2022-10-23T04:00:57;9.80;99.90
23556;DHT22;11956;53.184;8.578;2022-10-23T04:03:58;9.70;99.90
23556;DHT22;11956;53.184;8.578;2022-10-23T04:07:00;9.70;99.90
23556;DHT22;11956;53.184;8.578;2022-10-23T04:10:00;9.60;99.90
23556;DHT22;11956;53.184;8.578;2022-10-23T04:13:02;9.60;99.90
23556;DHT22;11956;53.184;8.578;2022-10-23T04:16:06;9.60;99.90
23556;DHT22;11956;53.184;8.578;2022-10-23T04:19:07;9.60;99.90
23556;DHT22;11956;53.184;8.578;2022-10-23T04:22:09;9.60;99.90
23556;DHT22;11956;53.184;8.578;2022-10-23T04:25:09;9.60;99.90
23556;DHT22;11956;53.184;8.578;2022-10-23T04:28:10;9.60;99.90
23556;DHT22;11956;53.184;8.578;2022-10-23T04:31:13;9.60;99.90
23556;DHT22;11956;53.184;8.578;2022-10-23T04:34:17;9.60;99.90
23556;DHT22;11956;53.184;8.578;2022-10-23T04:37:18;9.60;99.90
23556;DHT22;11956;53.184;8.578;2022-10-23T04:40:19;9.60;99.90
23556;DHT22;11956;53.184;8.578;2022-10-23T04:43:21;9.60;99.90
23556;DHT22;11956;53.184;8.578;2022-10-23T04:46:22;9.60;99.90
23556;DHT22;11956;53.184;8.578;2022-10-23T04:49:23;9.70;99.90
23556;DHT22;11956;53.184;8.578;2022-10-23T04:52:42;9.70;99.90
23556;DHT22;11956;53.184;8.578;2022-10-23T04:56:13;9.80;99.90
23556;DHT22;11956;53.184;8.578;2022-10-23T04:59:29;9.80;99.90
23556;DHT22;11956;53.184;8.578;2022-10-23T05:02:33;9.80;99.90
23556;DHT22;11956;53.184;8.578;2022-10-23T05:05:34;9.80;99.90
23556;DHT22;11956;53.184;8.578;2022-10-23T05:08:55;9.80;99.90
23556;DHT22;11956;53.184;8.578;2022-10-23T05:12:27;9.80;99.90
23556;DHT22;11956;53.184;8.578;2022-10-23T05:15:27;9.80;99.90
23556;DHT22;11956;53.184;8.578;2022-10-23T05:18:35;9.80;99.90
23556;DHT22;11956;53.184;8.578;2022-10-23T05:21:38;9.70;99.90
23556;DHT22;11956;53.184;8.578;2022-10-23T05:24:40;9.70;99.90
23556;DHT22;11956;53.184;8.578;2022-10-23T05:27:41;9.60;99.90
23556;DHT22;11956;53.184;8.578;2022-10-23T05:30:45;9.70;99.90
23556;DHT22;11956;53.184;8.578;2022-10-23T05:33:46;9.60;99.90
23556;DHT22;11956;53.184;8.578;2022-10-23T05:36:48;9.60;99.90
23556;DHT22;11956;53.184;8.578;2022-10-23T05:39:49;9.50;99.90
23556;DHT22;11956;53.184;8.578;2022-10-23T05:42:51;9.50;99.90
23556;DHT22;11956;53.184;8.578;2022-10-23T05:45:56;9.50;99.90
23556;DHT22;11956;53.184;8.578;2022-10-23T05:49:17;9.50;99.90
23556;DHT22;11956;53.184;8.578;2022-10-23T05:52:38;9.50;99.90
23556;DHT22;11956;53.184;8.578;2022-10-23T05:56:05;9.60;99.90
23556;DHT22;11956;53.184;8.578;2022-10-23T05:59:25;9.70;99.90
23556;DHT22;11956;53.184;8.578;2022-10-23T06:02:33;9.60;99.90
23556;DHT22;11956;53.184;8.578;2022-10-23T06:05:48;9.60;99.90
23556;DHT22;11956;53.184;8.578;2022-10-23T06:08:54;9.60;99.90
23556;DHT22;11956;53.184;8.578;2022-10-23T06:11:56;9.70;99.90
23556;DHT22;11956;53.184;8.578;2022-10-23T06:14:57;9.80;99.90
23556;DHT22;11956;53.184;8.578;2022-10-23T06:18:07;9.90;99.90
23556;DHT22;11956;53.184;8.578;2022-10-23T06:21:14;10.00;99.90
23556;DHT22;11956;53.184;8.578;2022-10-23T06:24:17;10.00;99.90
23556;DHT22;11956;53.184;8.578;2022-10-23T06:27:25;10.10;99.90
23556;DHT22;11956;53.184;8.578;2022-10-23T06:30:28;10.10;99.90
23556;DHT22;11956;53.184;8.578;2022-10-23T06:33:29;10.20;99.90
23556;DHT22;11956;53.184;8.578;2022-10-23T06:36:31;10.30;99.90
23556;DHT22;11956;53.184;8.578;2022-10-23T06:39:56;10.30;99.90
23556;DHT22;11956;53.184;8.578;2022-10-23T06:43:20;10.40;99.90
23556;DHT22;11956;53.184;8.578;2022-10-23T06:46:44;10.50;99.90
23556;DHT22;11956;53.184;8.578;2022-10-23T06:50:12;10.50;99.90
23556;DHT22;11956;53.184;8.578;2022-10-23T06:53:14;10.60;99.90
23556;DHT22;11956;53.184;8.578;2022-10-23T06:56:21;10.70;99.90
23556;DHT22;11956;53.184;8.578;2022-10-23T06:59:22;10.80;99.90
23556;DHT22;11956;53.184;8.578;2022-10-23T07:02:26;10.90;99.90
23556;DHT22;11956;53.184;8.578;2022-10-23T07:05:27;11.00;99.90
23556;DHT22;11956;53.184;8.578;2022-10-23T07:08:28;11.20;99.90
23556;DHT22;11956;53.184;8.578;2022-10-23T07:11:31;11.30;99.90
23556;DHT22;11956;53.184;8.578;2022-10-23T07:14:32;11.40;99.90
23556;DHT22;11956;53.184;8.578;2022-10-23T07:17:35;11.50;99.90
23556;DHT22;11956;53.184;8.578;2022-10-23T07:20:37;11.80;99.90
23556;DHT22;11956;53.184;8.578;2022-10-23T07:23:37;12.10;99.90
23556;DHT22;11956;53.184;8.578;2022-10-23T07:26:40;12.00;99.90
23556;DHT22;11956;53.184;8.578;2022-10-23T07:29:41;12.10;99.90
23556;DHT22;11956;53.184;8.578;2022-10-23T07:32:43;12.10;99.90
23556;DHT22;11956;53.184;8.578;2022-10-23T07:36:08;12.10;99.90
23556;DHT22;11956;53.184;8.578;2022-10-23T07:39:09;12.10;99.90
23556;DHT22;11956;53.184;8.578;2022-10-23T07:42:17;12.40;99.90
23556;DHT22;11956;53.184;8.578;2022-10-23T07:45:18;12.50;99.90
23556;DHT22;11956;53.184;8.578;2022-10-23T07:48:21;12.60;99.90
23556;DHT22;11956;53.184;8.578;2022-10-23T07:51:41;12.60;99.90
23556;DHT22;11956;53.184;8.578;2022-10-23T07:54:43;12.90;99.90
23556;DHT22;11956;53.184;8.578;2022-10-23T07:57:53;13.00;99.90
23556;DHT22;11956;53.184;8.578;2022-10-23T08:01:19;13.00;99.90
23556;DHT22;11956;53.184;8.578;2022-10-23T08:04:23;13.00;99.90
23556;DHT22;11956;53.184;8.578;2022-10-23T08:07:41;13.10;99.90
23556;DHT22;11956;53.184;8.578;2022-10-23T08:10:44;12.90;99.90
23556;DHT22;11956;53.184;8.578;2022-10-23T08:13:50;12.70;99.90
23556;DHT22;11956;53.184;8.578;2022-10-23T08:16:57;12.80;99.90
23556;DHT22;11956;53.184;8.578;2022-10-23T08:20:21;13.00;99.90
23556;DHT22;11956;53.184;8.578;2022-10-23T08:23:22;12.90;99.90
23556;DHT22;11956;53.184;8.578;2022-10-23T08:26:24;12.90;99.90
23556;DHT22;11956;53.184;8.578;2022-10-23T08:29:26;12.90;99.90
23556;DHT22;11956;53.184;8.578;2022-10-23T08:32:29;12.90;99.90
23556;DHT22;11956;53.184;8.578;2022-10-23T08:35:37;12.90;99.90
23556;DHT22;11956;53.184;8.578;2022-10-23T08:38:40;12.90;99.90
23556;DHT22;11956;53.184;8.578;2022-10-23T08:41:49;13.00;99.90
23556;DHT22;11956;53.184;8.578;2022-10-23T08:45:04;13.00;99.90
23556;DHT22;11956;53.184;8.578;2022-10-23T08:48:25;13.00;99.90
23556;DHT22;11956;53.184;8.578;2022-10-23T08:52:01;13.10;99.90
23556;DHT22;11956;53.184;8.578;2022-10-23T08:58:40;13.50;99.90
23556;DHT22;11956;53.184;8.578;2022-10-23T09:01:57;13.60;99.90
23556;DHT22;11956;53.184;8.578;2022-10-23T09:05:00;13.60;99.90
23556;DHT22;11956;53.184;8.578;2022-10-23T09:12:04;14.00;99.90
23556;DHT22;11956;53.184;8.578;2022-10-23T09:18:23;14.10;99.90
23556;DHT22;11956;53.184;8.578;2022-10-23T09:21:26;14.20;99.90
23556;DHT22;11956;53.184;8.578;2022-10-23T09:24:28;14.50;99.90
23556;DHT22;11956;53.184;8.578;2022-10-23T09:27:31;14.60;99.90
23556;DHT22;11956;53.184;8.578;2022-10-23T09:30:35;14.70;99.90
23556;DHT22;11956;53.184;8.578;2022-10-23T09:33:39;15.10;99.90
23556;DHT22;11956;53.184;8.578;2022-10-23T09:36:49;15.30;99.90
23556;DHT22;11956;53.184;8.578;2022-10-23T09:40:30;15.40;99.90
23556;DHT22;11956;53.184;8.578;2022-10-23T09:43:36;15.40;99.90
23556;DHT22;11956;53.184;8.578;2022-10-23T09:46:47;15.90;99.90
23556;DHT22;11956;53.184;8.578;2022-10-23T09:49:52;16.30;99.90
23556;DHT22;11956;53.184;8.578;2022-10-23T09:52:55;16.20;99.90
23556;DHT22;11956;53.184;8.578;2022-10-23T09:56:03;16.20;99.90
23556;DHT22;11956;53.184;8.578;2022-10-23T10:02:31;16.00;99.90
23556;DHT22;11956;53.184;8.578;2022-10-23T10:06:03;16.70;99.90
23556;DHT22;11956;53.184;8.578;2022-10-23T10:09:14;17.50;99.90
23556;DHT22;11956;53.184;8.578;2022-10-23T10:12:23;17.30;99.90
23556;DHT22;11956;53.184;8.578;2022-10-23T10:15:49;17.30;99.90
23556;DHT22;11956;53.184;8.578;2022-10-23T10:18:57;17.30;99.90
23556;DHT22;11956;53.184;8.578;2022-10-23T10:32:29;16.10;99.90
23556;DHT22;11956;53.184;8.578;2022-10-23T10:35:50;15.70;99.90
23556;DHT22;11956;53.184;8.578;2022-10-23T10:39:00;15.60;99.90
23556;DHT22;11956;53.184;8.578;2022-10-23T10:45:48;15.80;99.90
23556;DHT22;11956;53.184;8.578;2022-10-23T10:55:41;15.50;99.90
23556;DHT22;11956;53.184;8.578;2022-10-23T11:08:44;15.70;99.90
23556;DHT22;11956;53.184;8.578;2022-10-23T11:11:45;15.80;99.90
23556;DHT22;11956;53.184;8.578;2022-10-23T11:14:48;15.80;99.90
23556;DHT22;11956;53.184;8.578;2022-10-23T11:17:54;15.90;99.90
23556;DHT22;11956;53.184;8.578;2022-10-23T11:28:17;16.30;99.90
23556;DHT22;11956;53.184;8.578;2022-10-23T11:31:53;16.40;99.90
23556;DHT22;11956;53.184;8.578;2022-10-23T11:35:56;16.60;99.90
23556;DHT22;11956;53.184;8.578;2022-10-23T11:39:32;16.40;99.90
23556;DHT22;11956;53.184;8.578;2022-10-23T11:45:41;16.50;99.90
23556;DHT22;11956;53.184;8.578;2022-10-23T11:48:43;16.60;99.90
23556;DHT22;11956;53.184;8.578;2022-10-23T11:51:44;16.30;99.90
23556;DHT22;11956;53.184;8.578;2022-10-23T11:54:45;16.50;99.90
23556;DHT22;11956;53.184;8.578;2022-10-23T12:04:44;16.40;99.90
23556;DHT22;11956;53.184;8.578;2022-10-23T12:07:53;16.70;99.90
23556;DHT22;11956;53.184;8.578;2022-10-23T12:10:56;16.70;99.90
23556;DHT22;11956;53.184;8.578;2022-10-23T12:13:56;16.60;99.90
23556;DHT22;11956;53.184;8.578;2022-10-23T12:16:58;16.80;99.90
23556;DHT22;11956;53.184;8.578;2022-10-23T12:30:22;17.20;99.90
23556;DHT22;11956;53.184;8.578;2022-10-23T12:33:30;17.20;99.90
23556;DHT22;11956;53.184;8.578;2022-10-23T12:37:20;17.40;99.90
23556;DHT22;11956;53.184;8.578;2022-10-23T12:40:25;17.40;99.90
23556;DHT22;11956;53.184;8.578;2022-10-23T12:43:30;17.50;99.90
23556;DHT22;11956;53.184;8.578;2022-10-23T12:46:39;17.30;99.90
23556;DHT22;11956;53.184;8.578;2022-10-23T12:49:47;17.20;99.90
23556;DHT22;11956;53.184;8.578;2022-10-23T12:53:00;17.20;99.90
23556;DHT22;11956;53.184;8.578;2022-10-23T12:56:05;17.00;99.90
23556;DHT22;11956;53.184;8.578;2022-10-23T12:59:19;16.90;99.90
23556;DHT22;11956;53.184;8.578;2022-10-23T13:02:28;16.90;99.90
23556;DHT22;11956;53.184;8.578;2022-10-23T13:05:31;16.70;99.90
23556;DHT22;11956;53.184;8.578;2022-10-23T13:08:44;16.80;99.90
23556;DHT22;11956;53.184;8.578;2022-10-23T13:12:07;16.90;99.90
23556;DHT22;11956;53.184;8.578;2022-10-23T13:18:12;16.70;99.90
23556;DHT22;11956;53.184;8.578;2022-10-23T13:21:23;16.80;99.90
23556;DHT22;11956;53.184;8.578;2022-10-23T13:24:28;16.80;99.90
23556;DHT22;11956;53.184;8.578;2022-10-23T13:27:31;16.70;99.90
23556;DHT22;11956;53.184;8.578;2022-10-23T13:30:35;16.60;99.90
23556;DHT22;11956;53.184;8.578;2022-10-23T13:43:24;16.80;99.90
23556;DHT22;11956;53.184;8.578;2022-10-23T13:46:25;16.80;99.90
23556;DHT22;11956;53.184;8.578;2022-10-23T13:49:26;16.80;99.90
23556;DHT22;11956;53.184;8.578;2022-10-23T13:52:27;16.70;99.90
23556;DHT22;11956;53.184;8.578;2022-10-23T13:55:28;16.80;99.90
23556;DHT22;11956;53.184;8.578;2022-10-23T13:58:29;16.80;99.90
23556;DHT22;11956;53.184;8.578;2022-10-23T14:01:34;16.80;99.90
23556;DHT22;11956;53.184;8.578;2022-10-23T14:04:35;16.70;99.90
23556;DHT22;11956;53.184;8.578;2022-10-23T14:07:36;16.70;99.90
23556;DHT22;11956;53.184;8.578;2022-10-23T14:10:37;16.70;99.90
23556;DHT22;11956;53.184;8.578;2022-10-23T14:13:38;16.60;99.90
23556;DHT22;11956;53.184;8.578;2022-10-23T14:16:39;16.70;99.90
23556;DHT22;11956;53.184;8.578;2022-10-23T14:19:40;16.70;99.90
23556;DHT22;11956;53.184;8.578;2022-10-23T14:22:41;16.70;99.90
23556;DHT22;11956;53.184;8.578;2022-10-23T14:25:42;16.60;99.90
23556;DHT22;11956;53.184;8.578;2022-10-23T14:28:43;16.60;99.90
23556;DHT22;11956;53.184;8.578;2022-10-23T14:31:44;16.60;99.90
23556;DHT22;11956;53.184;8.578;2022-10-23T14:34:49;16.60;99.90
23556;DHT22;11956;53.184;8.578;2022-10-23T14:37:52;16.50;99.90
23556;DHT22;11956;53.184;8.578;2022-10-23T14:40:53;16.50;99.90
23556;DHT22;11956;53.184;8.578;2022-10-23T14:43:54;16.60;99.90
23556;DHT22;11956;53.184;8.578;2022-10-23T14:46:55;16.50;99.90
23556;DHT22;11956;53.184;8.578;2022-10-23T14:49:56;16.60;99.90
23556;DHT22;11956;53.184;8.578;2022-10-23T14:52:57;16.60;99.90
23556;DHT22;11956;53.184;8.578;2022-10-23T14:56:02;16.60;99.90
23556;DHT22;11956;53.184;8.578;2022-10-23T14:59:04;16.60;99.90
23556;DHT22;11956;53.184;8.578;2022-10-23T15:02:05;16.60;99.90
23556;DHT22;11956;53.184;8.578;2022-10-23T15:05:08;16.50;99.90
23556;DHT22;11956;53.184;8.578;2022-10-23T15:08:09;16.50;99.90
23556;DHT22;11956;53.184;8.578;2022-10-23T15:11:10;16.50;99.90
23556;DHT22;11956;53.184;8.578;2022-10-23T15:14:11;16.50;99.90
23556;DHT22;11956;53.184;8.578;2022-10-23T15:17:12;16.40;99.90
23556;DHT22;11956;53.184;8.578;2022-10-23T15:20:13;16.50;99.90
23556;DHT22;11956;53.184;8.578;2022-10-23T15:23:14;16.50;99.90
23556;DHT22;11956;53.184;8.578;2022-10-23T15:26:19;16.50;99.90
23556;DHT22;11956;53.184;8.578;2022-10-23T15:29:22;16.40;99.90
23556;DHT22;11956;53.184;8.578;2022-10-23T15:32:23;16.40;99.90
23556;DHT22;11956;53.184;8.578;2022-10-23T15:35:24;16.40;99.90
23556;DHT22;11956;53.184;8.578;2022-10-23T15:38:24;16.40;99.90
23556;DHT22;11956;53.184;8.578;2022-10-23T15:41:30;16.40;99.90
23556;DHT22;11956;53.184;8.578;2022-10-23T15:44:33;16.30;99.90
23556;DHT22;11956;53.184;8.578;2022-10-23T15:47:34;16.40;99.90
23556;DHT22;11956;53.184;8.578;2022-10-23T15:50:35;16.30;99.90
23556;DHT22;11956;53.184;8.578;2022-10-23T15:53:36;16.30;99.90
23556;DHT22;11956;53.184;8.578;2022-10-23T15:56:37;16.30;99.90
23556;DHT22;11956;53.184;8.578;2022-10-23T15:59:38;16.30;99.90
23556;DHT22;11956;53.184;8.578;2022-10-23T16:02:39;16.20;99.90
23556;DHT22;11956;53.184;8.578;2022-10-23T16:05:40;16.30;99.90
23556;DHT22;11956;53.184;8.578;2022-10-23T16:08:41;16.20;99.90
23556;DHT22;11956;53.184;8.578;2022-10-23T16:11:45;16.20;99.90
23556;DHT22;11956;53.184;8.578;2022-10-23T16:14:46;16.10;99.90
23556;DHT22;11956;53.184;8.578;2022-10-23T16:17:47;16.10;99.90
23556;DHT22;11956;53.184;8.578;2022-10-23T16:20:48;16.00;99.90
23556;DHT22;11956;53.184;8.578;2022-10-23T16:23:57;16.00;99.90
23556;DHT22;11956;53.184;8.578;2022-10-23T16:26:59;16.00;99.90
23556;DHT22;11956;53.184;8.578;2022-10-23T16:30:00;15.90;99.90
23556;DHT22;11956;53.184;8.578;2022-10-23T16:33:01;15.90;99.90
23556;DHT22;11956;53.184;8.578;2022-10-23T16:36:04;15.90;99.90
23556;DHT22;11956;53.184;8.578;2022-10-23T16:39:09;15.90;99.90
23556;DHT22;11956;53.184;8.578;2022-10-23T16:42:30;15.90;99.90
23556;DHT22;11956;53.184;8.578;2022-10-23T16:49:14;15.80;99.90
23556;DHT22;11956;53.184;8.578;2022-10-23T16:52:15;15.80;99.90
23556;DHT22;11956;53.184;8.578;2022-10-23T16:55:17;15.80;99.90
23556;DHT22;11956;53.184;8.578;2022-10-23T16:58:18;15.80;99.90
23556;DHT22;11956;53.184;8.578;2022-10-23T17:01:22;15.90;99.90
23556;DHT22;11956;53.184;8.578;2022-10-23T17:04:24;15.90;99.90
23556;DHT22;11956;53.184;8.578;2022-10-23T17:07:25;15.90;99.90
23556;DHT22;11956;53.184;8.578;2022-10-23T17:10:26;15.90;99.90
23556;DHT22;11956;53.184;8.578;2022-10-23T17:13:27;15.90;99.90
23556;DHT22;11956;53.184;8.578;2022-10-23T17:16:35;15.90;99.90
23556;DHT22;11956;53.184;8.578;2022-10-23T17:19:40;16.00;99.90
23556;DHT22;11956;53.184;8.578;2022-10-23T17:22:41;16.00;99.90
23556;DHT22;11956;53.184;8.578;2022-10-23T17:25:42;15.90;99.90
23556;DHT22;11956;53.184;8.578;2022-10-23T17:28:43;16.00;99.90
23556;DHT22;11956;53.184;8.578;2022-10-23T17:31:47;16.00;99.90
23556;DHT22;11956;53.184;8.578;2022-10-23T17:34:49;16.00;99.90
23556;DHT22;11956;53.184;8.578;2022-10-23T17:37:50;16.00;99.90
23556;DHT22;11956;53.184;8.578;2022-10-23T17:40:51;16.00;99.90
23556;DHT22;11956;53.184;8.578;2022-10-23T17:43:56;16.10;99.90
23556;DHT22;11956;53.184;8.578;2022-10-23T17:46:57;16.10;99.90
23556;DHT22;11956;53.184;8.578;2022-10-23T17:49:58;16.10;99.90
23556;DHT22;11956;53.184;8.578;2022-10-23T17:52:59;16.10;99.90
23556;DHT22;11956;53.184;8.578;2022-10-23T17:56:02;16.10;99.90
23556;DHT22;11956;53.184;8.578;2022-10-23T17:59:10;16.10;99.90
23556;DHT22;11956;53.184;8.578;2022-10-23T18:02:12;16.10;99.90
23556;DHT22;11956;53.184;8.578;2022-10-23T18:05:13;16.00;99.90
23556;DHT22;11956;53.184;8.578;2022-10-23T18:08:14;16.00;99.90
23556;DHT22;11956;53.184;8.578;2022-10-23T18:11:23;15.90;99.90
23556;DHT22;11956;53.184;8.578;2022-10-23T18:14:25;15.90;99.90
23556;DHT22;11956;53.184;8.578;2022-10-23T18:17:26;15.80;99.90
23556;DHT22;11956;53.184;8.578;2022-10-23T18:20:27;15.80;99.90
23556;DHT22;11956;53.184;8.578;2022-10-23T18:23:29;15.70;99.90
23556;DHT22;11956;53.184;8.578;2022-10-23T18:26:32;15.70;99.90
23556;DHT22;11956;53.184;8.578;2022-10-23T18:29:41;15.70;99.90
23556;DHT22;11956;53.184;8.578;2022-10-23T18:32:43;15.80;99.90
23556;DHT22;11956;53.184;8.578;2022-10-23T18:35:44;15.70;99.90
23556;DHT22;11956;53.184;8.578;2022-10-23T18:38:46;15.70;99.90
23556;DHT22;11956;53.184;8.578;2022-10-23T18:41:50;15.70;99.90
23556;DHT22;11956;53.184;8.578;2022-10-23T18:44:52;15.80;99.90
23556;DHT22;11956;53.184;8.578;2022-10-23T18:47:53;15.80;99.90
23556;DHT22;11956;53.184;8.578;2022-10-23T18:50:54;15.90;99.90
23556;DHT22;11956;53.184;8.578;2022-10-23T18:53:56;15.80;99.90
23556;DHT22;11956;53.184;8.578;2022-10-23T18:56:59;15.90;99.90
23556;DHT22;11956;53.184;8.578;2022-10-23T19:00:00;15.90;99.90
23556;DHT22;11956;53.184;8.578;2022-10-23T19:03:01;15.90;99.90
23556;DHT22;11956;53.184;8.578;2022-10-23T19:06:05;15.90;99.90
23556;DHT22;11956;53.184;8.578;2022-10-23T19:09:08;15.80;99.90
23556;DHT22;11956;53.184;8.578;2022-10-23T19:12:10;15.80;99.90
23556;DHT22;11956;53.184;8.578;2022-10-23T19:15:11;15.80;99.90
23556;DHT22;11956;53.184;8.578;2022-10-23T19:18:12;15.90;99.90
23556;DHT22;11956;53.184;8.578;2022-10-23T19:21:13;15.90;99.90
23556;DHT22;11956;53.184;8.578;2022-10-23T19:24:17;15.80;99.90
23556;DHT22;11956;53.184;8.578;2022-10-23T19:27:24;15.80;99.90
23556;DHT22;11956;53.184;8.578;2022-10-23T19:30:25;15.70;99.90
23556;DHT22;11956;53.184;8.578;2022-10-23T19:33:26;15.50;99.90
23556;DHT22;11956;53.184;8.578;2022-10-23T19:36:27;15.40;99.90
23556;DHT22;11956;53.184;8.578;2022-10-23T19:39:28;15.40;99.90
23556;DHT22;11956;53.184;8.578;2022-10-23T19:42:29;15.40;99.90
23556;DHT22;11956;53.184;8.578;2022-10-23T19:45:30;15.40;99.90
23556;DHT22;11956;53.184;8.578;2022-10-23T19:48:30;15.50;99.90
23556;DHT22;11956;53.184;8.578;2022-10-23T19:51:31;15.50;99.90
23556;DHT22;11956;53.184;8.578;2022-10-23T19:54:32;15.50;99.90
23556;DHT22;11956;53.184;8.578;2022-10-23T19:57:33;15.50;99.90
23556;DHT22;11956;53.184;8.578;2022-10-23T20:00:35;15.70;99.90
23556;DHT22;11956;53.184;8.578;2022-10-23T20:03:37;15.70;99.90
23556;DHT22;11956;53.184;8.578;2022-10-23T20:06:39;15.80;99.90
23556;DHT22;11956;53.184;8.578;2022-10-23T20:09:40;15.80;99.90
23556;DHT22;11956;53.184;8.578;2022-10-23T20:12:41;15.90;99.90
23556;DHT22;11956;53.184;8.578;2022-10-23T20:15:42;15.90;99.90
23556;DHT22;11956;53.184;8.578;2022-10-23T20:18:43;16.00;99.90
23556;DHT22;11956;53.184;8.578;2022-10-23T20:21:46;16.00;99.90
23556;DHT22;11956;53.184;8.578;2022-10-23T20:24:47;16.00;99.90
23556;DHT22;11956;53.184;8.578;2022-10-23T20:27:48;16.00;99.90
23556;DHT22;11956;53.184;8.578;2022-10-23T20:30:49;15.90;99.90
23556;DHT22;11956;53.184;8.578;2022-10-23T20:33:50;15.80;99.90
23556;DHT22;11956;53.184;8.578;2022-10-23T20:36:52;15.70;99.90
23556;DHT22;11956;53.184;8.578;2022-10-23T20:39:54;15.70;99.90
23556;DHT22;11956;53.184;8.578;2022-10-23T20:42:55;15.50;99.90
23556;DHT22;11956;53.184;8.578;2022-10-23T20:45:55;15.50;99.90
23556;DHT22;11956;53.184;8.578;2022-10-23T20:48:57;15.50;99.90
23556;DHT22;11956;53.184;8.578;2022-10-23T20:51:57;15.40;99.90
23556;DHT22;11956;53.184;8.578;2022-10-23T20:54:58;15.40;99.90
23556;DHT22;11956;53.184;8.578;2022-10-23T20:57:59;15.40;99.90
23556;DHT22;11956;53.184;8.578;2022-10-23T21:01:05;15.30;99.90
23556;DHT22;11956;53.184;8.578;2022-10-23T21:04:11;15.20;99.90
23556;DHT22;11956;53.184;8.578;2022-10-23T21:07:12;15.20;99.90
23556;DHT22;11956;53.184;8.578;2022-10-23T21:10:13;15.20;99.90
23556;DHT22;11956;53.184;8.578;2022-10-23T21:13:14;15.20;99.90
23556;DHT22;11956;53.184;8.578;2022-10-23T21:16:20;15.20;99.90
23556;DHT22;11956;53.184;8.578;2022-10-23T21:19:22;15.30;99.90
23556;DHT22;11956;53.184;8.578;2022-10-23T21:22:23;15.30;99.90